Time;durP1;ratioP1;P1;durP2;ratioP2;P2;SDS_P1;SDS_P2;PMS_P1;PMS_P2;Temp;Humidity;BMP_temperature;BMP_pressure;BME280_temperature;BME280_humidity;BME280_pressure;Samples;Min_cycle;Max_cycle;Signal;HPM_P1;HPM_P2
2023/06/27 00:01:51;;;;;;;1.23;0.80;;;;;;;;;;5077460;28;20484;-89
2023/06/27 00:05:27;;;;;;;1.25;0.82;;;;;;;;;;5076148;28;20040;-92
2023/06/27 00:10:54;;;;;;;0.55;0.43;;;;;;;;;;5031129;28;20039;-88
2023/06/27 00:16:40;;;;;;;1.63;1.00;;;;;;;;;;5000126;28;20039;-91
2023/06/27 00:19:08;;;;;;;1.50;1.23;;;;;;;;;;5058517;28;20031;-92
2023/06/27 00:24:44;;;;;;;0.75;0.68;;;;;;;;;;5097239;28;20400;-93
2023/06/27 00:27:40;;;;;;;2.55;1.00;;;;;;;;;;5091818;28;20039;-92
2023/06/27 00:30:18;;;;;;;1.27;1.15;;;;;;;;;;5062282;28;20043;-91
2023/06/27 00:36:10;;;;;;;1.10;0.68;;;;;;;;;;5088687;28;20153;-92
2023/06/27 00:38:47;;;;;;;1.38;0.90;;;;;;;;;;5097691;28;20545;-90
2023/06/27 00:41:12;;;;;;;1.63;0.88;;;;;;;;;;5081991;28;20024;-89
2023/06/27 00:43:41;;;;;;;1.33;0.70;;;;;;;;;;5084475;28;20045;-91
2023/06/27 00:46:11;;;;;;;1.95;1.27;;;;;;;;;;5076321;28;20027;-88
2023/06/27 00:49:29;;;;;;;2.35;0.90;;;;;;;;;;5099615;28;20059;-92
2023/06/27 00:52:14;;;;;;;2.08;1.30;;;;;;;;;;5081028;28;20036;-92
2023/06/27 00:54:39;;;;;;;0.85;0.82;;;;;;;;;;5091458;28;20031;-90
2023/06/27 00:57:18;;;;;;;;;;;;;;;;;;;;;
2023/06/27 01:07:16;;;;;;;1.38;0.80;;;;;;;;;;5059491;28;20055;-91
2023/06/27 01:10:24;;;;;;;1.40;0.82;;;;;;;;;;5036082;28;20041;-88
2023/06/27 01:13:02;;;;;;;1.20;0.95;;;;;;;;;;5051466;28;20044;-89
2023/06/27 01:15:31;;;;;;;1.42;0.88;;;;;;;;;;5076803;28;20024;-92
2023/06/27 01:17:57;;;;;;;1.17;0.80;;;;;;;;;;5079629;28;20028;-89
2023/06/27 01:20:41;;;;;;;1.15;1.05;;;;;;;;;;5076106;28;20049;-89
2023/06/27 01:23:33;;;;;;;2.17;1.40;;;;;;;;;;5050979;28;20087;-90
2023/06/27 01:26:22;;;;;;;2.03;1.05;;;;;;;;;;5055038;28;20409;-88
2023/06/27 01:28:55;;;;;;;2.10;0.98;;;;;;;;;;5052042;28;20039;-91
2023/06/27 01:31:42;;;;;;;1.02;0.68;;;;;;;;;;5051089;28;20028;-90
2023/06/27 01:34:53;;;;;;;1.75;1.00;;;;;;;;;;5068201;28;20036;-89
2023/06/27 01:41:02;;;;;;;1.02;0.88;;;;;;;;;;5068274;28;20045;-89
2023/06/27 01:43:29;;;;;;;1.30;0.73;;;;;;;;;;5049195;28;20108;-87
2023/06/27 01:46:05;;;;;;;1.17;0.70;;;;;;;;;;5052249;28;20032;-91
2023/06/27 01:48:36;;;;;;;1.67;1.35;;;;;;;;;;5054586;28;20028;-89
2023/06/27 01:51:14;;;;;;;1.73;0.85;;;;;;;;;;5055072;28;20430;-90
2023/06/27 01:53:40;;;;;;;3.33;1.20;;;;;;;;;;5050315;28;20442;-89
2023/06/27 01:56:09;;;;;;;1.10;0.77;;;;;;;;;;5048543;28;20025;-89
2023/06/27 01:58:34;;;;;;;0.50;0.45;;;;;;;;;;5069949;28;20103;-89
2023/06/27 02:01:00;;;;;;;0.57;0.43;;;;;;;;;;5050510;28;20088;-89
2023/06/27 02:03:26;;;;;;;1.60;1.15;;;;;;;;;;5047962;28;20433;-88
2023/06/27 02:05:51;;;;;;;1.40;1.00;;;;;;;;;;5050532;28;20055;-87
2023/06/27 02:08:23;;;;;;;1.13;0.65;;;;;;;;;;5051052;28;21372;-90
2023/06/27 02:18:16;;;;;;;2.05;1.40;;;;;;;;;;4994186;28;20414;-92
2023/06/27 02:20:53;;;;;;;2.10;0.98;;;;;;;;;;4992520;28;20494;-88
2023/06/27 02:23:21;;;;;;;0.50;0.50;;;;;;;;;;5022501;28;20038;-91
2023/06/27 02:25:58;;;;;;;1.23;1.05;;;;;;;;;;5065894;28;20036;-90
2023/06/27 02:28:24;;;;;;;1.13;0.50;;;;;;;;;;5071005;28;20041;-90
2023/06/27 02:30:57;;;;;;;1.25;1.15;;;;;;;;;;5058586;28;20039;-89
2023/06/27 02:33:23;;;;;;;1.27;0.70;;;;;;;;;;5056914;28;20082;-86
2023/06/27 02:35:51;;;;;;;1.25;0.88;;;;;;;;;;5074583;28;20020;-90
2023/06/27 02:38:58;;;;;;;2.70;1.17;;;;;;;;;;5070297;28;20084;-92
2023/06/27 02:41:52;;;;;;;1.63;0.98;;;;;;;;;;5053243;28;20055;-91
2023/06/27 02:44:50;;;;;;;;;;;;;;;;;;;;;
2023/06/27 02:47:48;;;;;;;;;;;;;;;;;;;;;
2023/06/27 02:50:50;;;;;;;2.17;1.20;;;;;;;;;;4993245;28;20073;-91
2023/06/27 02:54:12;;;;;;;1.40;0.90;;;;;;;;;;4991568;28;20069;-89
2023/06/27 02:56:52;;;;;;;0.75;0.75;;;;;;;;;;4936900;29;20032;-91
2023/06/27 02:59:25;;;;;;;0.38;0.32;;;;;;;;;;4933644;29;20063;-91
2023/06/27 03:02:04;;;;;;;2.08;1.25;;;;;;;;;;4972807;28;20513;-90
2023/06/27 03:04:29;;;;;;;1.10;0.83;;;;;;;;;;5008491;28;20028;-89
2023/06/27 03:06:55;;;;;;;1.40;1.10;;;;;;;;;;5073261;28;20256;-89
2023/06/27 03:09:21;;;;;;;2.17;1.27;;;;;;;;;;5057395;28;20024;-89
2023/06/27 03:11:47;;;;;;;1.92;1.25;;;;;;;;;;5073729;28;20032;-92
2023/06/27 03:17:37;;;;;;;0.70;0.65;;;;;;;;;;5028820;28;20512;-88
2023/06/27 03:20:21;;;;;;;0.93;0.65;;;;;;;;;;5010844;28;20125;-90
2023/06/27 03:23:04;;;;;;;0.77;0.60;;;;;;;;;;5048092;28;20044;-92
2023/06/27 03:25:32;;;;;;;0.55;0.50;;;;;;;;;;5056256;28;20028;-91
2023/06/27 03:35:02;;;;;;;1.02;0.80;;;;;;;;;;5072861;28;20397;-90
2023/06/27 03:41:55;;;;;;;0.75;0.75;;;;;;;;;;4948927;29;20424;-91
2023/06/27 03:44:38;;;;;;;1.13;1.02;;;;;;;;;;4925297;28;20038;-88
2023/06/27 03:47:10;;;;;;;2.08;1.08;;;;;;;;;;4972279;28;20037;-90
2023/06/27 03:49:38;;;;;;;2.38;1.45;;;;;;;;;;4986428;28;20608;-91
2023/06/27 03:52:04;;;;;;;0.88;0.50;;;;;;;;;;5023323;28;20488;-88
2023/06/27 03:55:10;;;;;;;0.73;0.60;;;;;;;;;;5053522;28;20024;-90
2023/06/27 03:58:06;;;;;;;1.92;1.00;;;;;;;;;;5055556;28;20024;-93
2023/06/27 04:00:36;;;;;;;2.90;1.27;;;;;;;;;;5059256;28;20111;-91
2023/06/27 04:03:02;;;;;;;1.15;0.95;;;;;;;;;;5059339;28;20404;-92
2023/06/27 04:05:38;;;;;;;2.22;1.20;;;;;;;;;;5078564;28;20025;-91
2023/06/27 04:08:06;;;;;;;1.40;0.90;;;;;;;;;;5055788;28;20130;-92
2023/06/27 04:10:32;;;;;;;3.55;1.60;;;;;;;;;;5056202;28;20028;-92
2023/06/27 04:13:00;;;;;;;2.78;1.77;;;;;;;;;;5073994;28;20104;-91
2023/06/27 04:15:25;;;;;;;2.25;1.45;;;;;;;;;;5056500;28;20035;-90
2023/06/27 04:17:53;;;;;;;3.25;1.65;;;;;;;;;;5055987;28;20024;-93
2023/06/27 04:24:58;;;;;;;2.47;1.25;;;;;;;;;;5082082;28;20503;-93
2023/06/27 04:28:26;;;;;;;1.85;1.25;;;;;;;;;;5005520;28;20057;-93
2023/06/27 04:31:11;;;;;;;1.95;1.55;;;;;;;;;;4982038;28;20037;-91
2023/06/27 04:33:50;;;;;;;1.83;1.40;;;;;;;;;;4990233;28;20041;-92
2023/06/27 04:36:20;;;;;;;3.33;1.80;;;;;;;;;;5005268;28;20069;-90
2023/06/27 04:39:11;;;;;;;;;;;;;;;;;;5046003;28;20027;-91
2023/06/27 04:42:15;;;;;;;2.63;1.67;;;;;;;;;;5066383;28;19924;-89
2023/06/27 04:45:27;;;;;;;;;;;;;;;;;;;;;
2023/06/27 04:47:56;;;;;;;3.17;1.80;;;;;;;;;;5088751;28;20107;-91
2023/06/27 04:50:22;;;;;;;1.73;1.50;;;;;;;;;;5088865;28;20035;-89
2023/06/27 04:52:47;;;;;;;2.10;1.70;;;;;;;;;;5093741;28;20452;-89
2023/06/27 04:55:13;;;;;;;2.10;1.52;;;;;;;;;;5057866;28;20032;-90
2023/06/27 04:57:39;;;;;;;1.45;1.17;;;;;;;;;;5060813;28;20380;-88
2023/06/27 05:00:06;;;;;;;2.08;1.48;;;;;;;;;;5061209;28;20370;-88
2023/06/27 05:02:32;;;;;;;2.85;2.17;;;;;;;;;;5049415;28;20044;-89
2023/06/27 05:04:57;;;;;;;2.65;1.73;;;;;;;;;;5063110;28;20064;-90
2023/06/27 05:07:23;;;;;;;2.28;1.48;;;;;;;;;;5054464;28;20037;-89
2023/06/27 05:09:51;;;;;;;6.00;2.35;;;;;;;;;;5083529;28;20025;-90
2023/06/27 05:12:16;;;;;;;2.47;1.75;;;;;;;;;;5081646;28;20108;-88
2023/06/27 05:14:42;;;;;;;3.03;1.88;;;;;;;;;;5063076;28;20170;-85
2023/06/27 05:17:07;;;;;;;3.05;1.90;;;;;;;;;;5076526;28;20085;-87
2023/06/27 05:19:33;;;;;;;3.25;1.70;;;;;;;;;;5051443;28;20488;-87
2023/06/27 05:21:58;;;;;;;2.22;1.85;;;;;;;;;;5078598;28;20052;-86
2023/06/27 05:24:24;;;;;;;4.35;2.53;;;;;;;;;;5082708;28;20030;-87
2023/06/27 05:26:49;;;;;;;2.17;1.55;;;;;;;;;;5051474;28;20119;-86
2023/06/27 05:29:14;;;;;;;3.10;2.15;;;;;;;;;;5078857;28;20043;-85
2023/06/27 05:31:40;;;;;;;3.33;2.17;;;;;;;;;;5047372;28;20035;-86
2023/06/27 05:34:07;;;;;;;2.47;1.80;;;;;;;;;;5051291;28;20103;-87
2023/06/27 05:36:33;;;;;;;2.47;1.85;;;;;;;;;;5055596;28;20028;-87
2023/06/27 05:38:59;;;;;;;2.45;1.95;;;;;;;;;;5083084;28;20024;-86
2023/06/27 05:41:24;;;;;;;3.33;2.15;;;;;;;;;;5065645;28;20029;-86
2023/06/27 05:43:50;;;;;;;2.47;1.50;;;;;;;;;;5048373;28;20393;-84
2023/06/27 05:46:15;;;;;;;4.47;2.25;;;;;;;;;;5082205;28;20031;-85
2023/06/27 05:48:41;;;;;;;3.05;1.80;;;;;;;;;;5048137;28;20024;-85
2023/06/27 05:51:07;;;;;;;3.13;1.77;;;;;;;;;;5075991;28;20024;-86
2023/06/27 05:53:33;;;;;;;3.38;2.15;;;;;;;;;;5082008;28;20024;-89
2023/06/27 05:55:58;;;;;;;2.33;1.63;;;;;;;;;;5076779;28;20723;-86
2023/06/27 05:58:23;;;;;;;3.22;2.03;;;;;;;;;;5076350;28;20029;-85
2023/06/27 06:00:50;;;;;;;2.80;2.03;;;;;;;;;;5063143;28;20036;-87
2023/06/27 06:03:15;;;;;;;4.43;1.92;;;;;;;;;;5080103;28;20566;-86
2023/06/27 06:05:41;;;;;;;4.28;2.42;;;;;;;;;;5073109;28;20107;-86
2023/06/27 06:08:06;;;;;;;3.00;2.00;;;;;;;;;;5082169;28;20024;-85
2023/06/27 06:10:32;;;;;;;2.47;1.73;;;;;;;;;;5050622;28;20032;-87
2023/06/27 06:12:57;;;;;;;5.43;2.33;;;;;;;;;;5050325;28;20036;-85
2023/06/27 06:15:22;;;;;;;2.95;2.08;;;;;;;;;;5072649;28;20027;-87
2023/06/27 06:17:48;;;;;;;2.90;1.85;;;;;;;;;;5075768;28;20028;-87
2023/06/27 06:20:14;;;;;;;4.75;2.33;;;;;;;;;;5075811;28;20035;-84
2023/06/27 06:22:40;;;;;;;3.63;2.22;;;;;;;;;;5088566;28;20048;-81
2023/06/27 06:25:05;;;;;;;3.03;2.03;;;;;;;;;;5071397;28;20045;-85
2023/06/27 06:27:31;;;;;;;3.10;1.65;;;;;;;;;;5075857;28;20032;-86
2023/06/27 06:29:56;;;;;;;3.05;1.80;;;;;;;;;;5089169;28;20048;-86
2023/06/27 06:32:22;;;;;;;3.03;1.75;;;;;;;;;;5091550;28;20074;-86
2023/06/27 06:34:47;;;;;;;3.05;2.28;;;;;;;;;;5093992;28;20028;-86
2023/06/27 06:37:14;;;;;;;3.47;2.08;;;;;;;;;;5091026;28;20020;-85
2023/06/27 06:39:41;;;;;;;2.70;1.70;;;;;;;;;;5070216;28;20081;-85
2023/06/27 08:26:35;;;;;;;2.08;1.20;;;;;;;;;;5074040;28;20725;-88
2023/06/27 08:29:00;;;;;;;3.40;1.25;;;;;;;;;;5075272;28;20078;-88
2023/06/27 08:31:26;;;;;;;2.53;1.55;;;;;;;;;;5067797;28;20025;-84
2023/06/27 08:33:51;;;;;;;2.25;1.30;;;;;;;;;;5074956;28;20080;-85
2023/06/27 08:36:16;;;;;;;1.48;1.20;;;;;;;;;;5074450;28;20023;-85
2023/06/27 08:38:42;;;;;;;1.75;0.90;;;;;;;;;;5074842;28;20108;-84
2023/06/27 08:41:09;;;;;;;1.02;0.90;;;;;;;;;;5068779;28;20025;-84
2023/06/27 08:43:35;;;;;;;1.73;1.20;;;;;;;;;;5076975;28;20039;-86
2023/06/27 08:46:01;;;;;;;2.13;1.25;;;;;;;;;;5074434;28;20111;-88
2023/06/27 08:48:27;;;;;;;1.67;1.23;;;;;;;;;;5077189;28;20473;-89
2023/06/27 08:50:53;;;;;;;1.83;1.30;;;;;;;;;;5072599;28;20036;-88
2023/06/27 08:53:21;;;;;;;1.48;1.00;;;;;;;;;;5075747;28;20024;-85
2023/06/27 08:56:05;;;;;;;1.10;0.82;;;;;;;;;;5066966;28;20041;-84
2023/06/27 08:58:51;;;;;;;1.38;1.27;;;;;;;;;;5069447;28;20032;-84
2023/06/27 09:01:17;;;;;;;2.30;1.20;;;;;;;;;;5076301;28;20543;-85
2023/06/27 09:03:42;;;;;;;1.92;1.00;;;;;;;;;;5076946;28;20063;-82
2023/06/27 09:06:08;;;;;;;1.85;1.10;;;;;;;;;;5071114;28;20028;-85
2023/06/27 09:08:35;;;;;;;0.40;0.40;;;;;;;;;;5070510;28;20029;-82
2023/06/27 09:11:04;;;;;;;3.67;1.63;;;;;;;;;;5074547;28;20025;-83
2023/06/27 09:13:30;;;;;;;1.50;1.20;;;;;;;;;;5071368;28;20021;-82
2023/06/27 09:15:55;;;;;;;1.10;0.90;;;;;;;;;;5079073;28;21047;-84
2023/06/27 09:18:21;;;;;;;1.13;1.00;;;;;;;;;;5080315;28;20032;-87
2023/06/27 09:20:47;;;;;;;3.72;1.40;;;;;;;;;;5075593;28;20024;-85
2023/06/27 09:23:12;;;;;;;1.38;0.90;;;;;;;;;;5079951;28;20388;-88
2023/06/27 09:25:38;;;;;;;0.63;0.60;;;;;;;;;;5075973;28;20067;-87
2023/06/27 09:28:29;;;;;;;1.30;0.90;;;;;;;;;;5074068;28;20107;-85
2023/06/27 09:30:56;;;;;;;0.75;0.68;;;;;;;;;;5074505;28;20461;-88
2023/06/27 09:33:23;;;;;;;1.67;1.05;;;;;;;;;;5076690;28;20026;-85
2023/06/27 09:35:48;;;;;;;2.22;1.13;;;;;;;;;;5074184;28;20025;-85
2023/06/27 09:38:14;;;;;;;1.88;1.33;;;;;;;;;;5062699;28;20025;-85
2023/06/27 09:40:40;;;;;;;4.22;1.73;;;;;;;;;;5060408;28;20035;-84
2023/06/27 09:43:07;;;;;;;1.83;1.38;;;;;;;;;;5059243;28;20047;-88
2023/06/27 09:45:33;;;;;;;1.98;1.38;;;;;;;;;;5067095;28;20029;-85
2023/06/27 09:47:58;;;;;;;2.15;1.42;;;;;;;;;;5061134;28;20021;-87
2023/06/27 09:50:30;;;;;;;1.40;1.05;;;;;;;;;;5063517;28;20115;-86
2023/06/27 09:53:01;;;;;;;1.48;1.35;;;;;;;;;;5061139;28;20025;-85
2023/06/27 09:55:27;;;;;;;1.23;0.93;;;;;;;;;;5056600;28;20031;-84
2023/06/27 09:57:53;;;;;;;2.35;1.25;;;;;;;;;;5064569;28;20037;-87
2023/06/27 10:00:21;;;;;;;0.98;0.80;;;;;;;;;;5059986;28;20033;-85
2023/06/27 10:02:50;;;;;;;1.25;0.70;;;;;;;;;;5064392;28;20063;-88
2023/06/27 10:06:17;;;;;;;1.48;1.00;;;;;;;;;;5059822;28;20024;-88
2023/06/27 10:08:43;;;;;;;1.17;0.88;;;;;;;;;;5065378;28;20380;-84
2023/06/27 10:11:08;;;;;;;5.65;1.42;;;;;;;;;;5063304;28;20024;-85
2023/06/27 10:13:44;;;;;;;3.50;1.65;;;;;;;;;;5061115;28;20025;-87
2023/06/27 10:16:10;;;;;;;0.70;0.60;;;;;;;;;;5063258;28;20043;-86
2023/06/27 10:18:36;;;;;;;0.73;0.60;;;;;;;;;;5056609;28;20535;-89
2023/06/27 10:21:30;;;;;;;0.82;0.77;;;;;;;;;;5062893;28;20052;-87
2023/06/27 10:23:58;;;;;;;1.17;0.93;;;;;;;;;;5056161;28;20040;-85
2023/06/27 10:26:54;;;;;;;1.35;0.90;;;;;;;;;;5063155;28;20049;-89
2023/06/27 10:32:17;;;;;;;0.80;0.70;;;;;;;;;;5055687;28;20040;-85
2023/06/27 10:34:46;;;;;;;1.15;0.65;;;;;;;;;;5059079;28;20020;-87
2023/06/27 10:37:23;;;;;;;1.05;0.80;;;;;;;;;;5051629;28;20103;-86
2023/06/27 10:40:09;;;;;;;2.05;1.17;;;;;;;;;;5058078;28;20052;-84
2023/06/27 10:42:35;;;;;;;1.20;1.10;;;;;;;;;;5063968;28;20074;-87
2023/06/27 10:45:04;;;;;;;1.25;0.90;;;;;;;;;;5061125;28;20033;-86
2023/06/27 10:47:44;;;;;;;1.45;1.02;;;;;;;;;;5055432;28;20032;-88
2023/06/27 10:50:22;;;;;;;2.08;1.23;;;;;;;;;;5061340;28;20388;-87
2023/06/27 10:53:07;;;;;;;2.08;1.08;;;;;;;;;;5058235;28;20055;-86
2023/06/27 10:55:33;;;;;;;2.15;1.10;;;;;;;;;;5055793;28;20468;-86
2023/06/27 10:58:26;;;;;;;1.52;0.85;;;;;;;;;;5061676;28;20771;-87
2023/06/27 11:01:24;;;;;;;1.92;1.20;;;;;;;;;;5060712;28;20461;-86
2023/06/27 11:03:57;;;;;;;1.85;0.88;;;;;;;;;;5062018;28;20376;-87
2023/06/27 11:07:00;;;;;;;1.50;1.00;;;;;;;;;;5061193;28;20111;-86
2023/06/27 11:09:28;;;;;;;1.10;0.60;;;;;;;;;;5014652;28;20034;-86
2023/06/27 11:16:33;;;;;;;1.02;0.73;;;;;;;;;;5055228;28;20037;-87
2023/06/27 11:19:31;;;;;;;1.75;1.13;;;;;;;;;;4975070;28;20038;-90
2023/06/27 11:22:27;;;;;;;2.63;1.10;;;;;;;;;;4973422;28;20068;-90
2023/06/27 11:24:53;;;;;;;1.00;0.80;;;;;;;;;;5055125;28;20041;-87
2023/06/27 11:27:20;;;;;;;1.35;1.08;;;;;;;;;;5064667;28;20028;-87
2023/06/27 11:30:03;;;;;;;1.70;1.00;;;;;;;;;;5069751;28;20036;-88
2023/06/27 11:32:32;;;;;;;2.75;1.27;;;;;;;;;;5065193;28;20036;-85
2023/06/27 11:34:58;;;;;;;0.80;0.63;;;;;;;;;;5098981;28;20024;-86
2023/06/27 11:37:28;;;;;;;1.00;0.85;;;;;;;;;;5069774;28;20040;-86
2023/06/27 11:40:17;;;;;;;0.85;0.82;;;;;;;;;;5064240;28;20425;-88
2023/06/27 11:43:06;;;;;;;1.73;1.38;;;;;;;;;;5057290;28;20047;-91
2023/06/27 11:45:43;;;;;;;;;;;;;;;;;;5072362;28;20479;-88
2023/06/27 11:48:09;;;;;;;1.27;0.70;;;;;;;;;;5060444;28;19916;-85
2023/06/27 11:50:34;;;;;;;1.85;1.45;;;;;;;;;;5074180;28;20077;-90
2023/06/27 11:53:00;;;;;;;1.40;0.98;;;;;;;;;;5080162;28;20028;-86
2023/06/27 11:55:26;;;;;;;3.05;1.27;;;;;;;;;;5081748;28;20043;-85
2023/06/27 11:57:58;;;;;;;1.33;1.08;;;;;;;;;;5073416;28;20542;-85
2023/06/27 12:00:28;;;;;;;0.98;0.90;;;;;;;;;;5077765;28;20514;-85
2023/06/27 12:02:56;;;;;;;1.40;0.82;;;;;;;;;;5062957;28;20034;-84
2023/06/27 12:05:24;;;;;;;1.33;0.85;;;;;;;;;;5079557;28;20519;-84
2023/06/27 12:08:05;;;;;;;1.70;0.90;;;;;;;;;;5073795;28;20086;-84
2023/06/27 12:10:32;;;;;;;1.65;1.40;;;;;;;;;;5079001;28;20464;-86
2023/06/27 12:13:01;;;;;;;0.80;0.50;;;;;;;;;;5072759;28;20074;-85
2023/06/27 12:15:26;;;;;;;0.93;0.80;;;;;;;;;;5074320;28;20032;-86
2023/06/27 12:18:01;;;;;;;1.45;0.95;;;;;;;;;;5081542;28;20314;-86
2023/06/27 12:20:42;;;;;;;1.52;1.00;;;;;;;;;;5082081;28;20028;-88
2023/06/27 12:23:09;;;;;;;0.82;0.50;;;;;;;;;;5073888;28;20086;-87
2023/06/27 12:25:39;;;;;;;0.60;0.60;;;;;;;;;;5077949;28;20086;-91
2023/06/27 12:28:05;;;;;;;1.30;0.75;;;;;;;;;;5070287;28;20067;-87
2023/06/27 12:30:31;;;;;;;1.60;0.95;;;;;;;;;;5069780;28;20060;-89
2023/06/27 12:32:56;;;;;;;2.53;1.48;;;;;;;;;;5070260;28;20067;-88
2023/06/27 12:35:22;;;;;;;1.17;0.63;;;;;;;;;;5069823;28;20528;-86
2023/06/27 12:37:47;;;;;;;0.88;0.63;;;;;;;;;;5070020;28;20392;-86
2023/06/27 12:40:15;;;;;;;1.63;1.08;;;;;;;;;;5051485;28;20466;-85
2023/06/27 12:42:42;;;;;;;1.58;0.90;;;;;;;;;;5049609;28;20828;-84
2023/06/27 12:45:08;;;;;;;1.00;0.80;;;;;;;;;;5069554;28;20380;-87
2023/06/27 12:47:36;;;;;;;0.70;0.68;;;;;;;;;;5068067;28;20048;-87
2023/06/27 12:50:03;;;;;;;1.15;0.75;;;;;;;;;;5067176;28;20477;-86
2023/06/27 12:52:29;;;;;;;1.58;1.20;;;;;;;;;;5073104;28;20033;-85
2023/06/27 12:54:54;;;;;;;2.85;1.45;;;;;;;;;;5053077;28;20452;-84
2023/06/27 12:57:20;;;;;;;1.75;1.15;;;;;;;;;;5053729;28;20032;-83
2023/06/27 12:59:45;;;;;;;1.75;0.65;;;;;;;;;;5052227;28;21025;-86
2023/06/27 13:02:12;;;;;;;1.52;1.15;;;;;;;;;;5065250;28;20023;-84
2023/06/27 13:04:38;;;;;;;1.10;0.80;;;;;;;;;;5070014;28;20372;-88
2023/06/27 13:07:03;;;;;;;1.83;1.05;;;;;;;;;;5070074;28;20024;-86
2023/06/27 13:09:29;;;;;;;1.30;1.02;;;;;;;;;;5054151;28;20042;-82
2023/06/27 13:11:55;;;;;;;1.60;1.42;;;;;;;;;;5072454;28;20047;-85
2023/06/27 13:14:22;;;;;;;1.23;1.10;;;;;;;;;;5075609;28;20439;-85
2023/06/27 13:16:49;;;;;;;1.23;0.90;;;;;;;;;;5074890;28;20038;-85
2023/06/27 13:19:15;;;;;;;1.38;0.80;;;;;;;;;;5069448;28;20028;-88
2023/06/27 13:21:41;;;;;;;2.00;1.05;;;;;;;;;;5074482;28;21399;-89
2023/06/27 13:24:06;;;;;;;1.90;1.23;;;;;;;;;;5074039;28;20024;-87
2023/06/27 13:26:32;;;;;;;5.45;1.20;;;;;;;;;;5058851;28;20033;-87
2023/06/27 13:28:58;;;;;;;1.52;0.80;;;;;;;;;;5053629;28;20033;-85
2023/06/27 13:31:23;;;;;;;2.45;1.25;;;;;;;;;;5053728;28;20037;-88
2023/06/27 13:33:49;;;;;;;1.52;0.88;;;;;;;;;;5035196;28;20029;-86
2023/06/27 13:36:15;;;;;;;1.55;0.93;;;;;;;;;;5034416;28;20025;-85
2023/06/27 13:38:40;;;;;;;1.05;0.77;;;;;;;;;;5034786;28;20029;-87
2023/06/27 13:41:06;;;;;;;1.52;0.95;;;;;;;;;;5049902;28;20384;-84
2023/06/27 13:43:34;;;;;;;1.45;0.80;;;;;;;;;;5031549;28;20470;-87
2023/06/27 13:46:00;;;;;;;4.93;1.00;;;;;;;;;;5032560;28;20159;-85
2023/06/27 13:48:26;;;;;;;1.73;1.20;;;;;;;;;;5029657;28;20182;-84
2023/06/27 13:50:53;;;;;;;1.35;0.95;;;;;;;;;;5033449;28;20443;-84
2023/06/27 13:53:19;;;;;;;1.80;1.10;;;;;;;;;;5049908;28;20021;-85
2023/06/27 13:55:48;;;;;;;1.30;1.00;;;;;;;;;;5053866;28;20037;-85
2023/06/27 13:58:14;;;;;;;1.30;1.13;;;;;;;;;;5035800;28;20499;-87
2023/06/27 14:00:40;;;;;;;2.05;1.33;;;;;;;;;;5034050;28;20112;-85
2023/06/27 14:03:06;;;;;;;1.38;1.05;;;;;;;;;;5053497;28;20025;-84
2023/06/27 14:05:32;;;;;;;1.05;0.90;;;;;;;;;;5053655;28;20120;-84
2023/06/27 14:07:58;;;;;;;3.47;1.30;;;;;;;;;;5053471;28;20033;-84
2023/06/27 14:10:23;;;;;;;1.20;0.90;;;;;;;;;;5031595;28;20044;-83
2023/06/27 14:12:49;;;;;;;1.08;0.98;;;;;;;;;;5053503;28;20028;-85
2023/06/27 14:15:15;;;;;;;1.40;1.00;;;;;;;;;;5052728;28;20025;-87
2023/06/27 14:17:41;;;;;;;1.90;1.27;;;;;;;;;;5047593;28;20031;-84
2023/06/27 14:20:08;;;;;;;1.63;1.35;;;;;;;;;;5053523;28;20032;-86
2023/06/27 14:22:34;;;;;;;1.58;1.15;;;;;;;;;;5053672;28;20055;-85
2023/06/27 14:25:00;;;;;;;2.55;1.05;;;;;;;;;;5052253;28;20471;-84
2023/06/27 14:27:25;;;;;;;1.05;0.88;;;;;;;;;;5067644;28;20032;-86
2023/06/27 14:29:51;;;;;;;1.40;1.13;;;;;;;;;;5072276;28;20361;-84
2023/06/27 14:32:16;;;;;;;1.63;1.13;;;;;;;;;;5073250;28;20032;-86
2023/06/27 14:34:42;;;;;;;1.42;1.10;;;;;;;;;;5071544;28;20453;-85
2023/06/27 14:37:07;;;;;;;1.00;0.90;;;;;;;;;;5072262;28;20054;-85
2023/06/27 14:39:33;;;;;;;1.90;1.20;;;;;;;;;;5071890;28;20118;-86
2023/06/27 14:41:58;;;;;;;2.13;1.35;;;;;;;;;;5053684;28;20028;-84
2023/06/27 14:44:24;;;;;;;1.73;1.10;;;;;;;;;;5067065;28;20070;-83
2023/06/27 14:46:49;;;;;;;2.05;1.17;;;;;;;;;;5054324;28;20380;-82
2023/06/27 14:49:14;;;;;;;0.88;0.77;;;;;;;;;;5054053;28;20544;-84
2023/06/27 14:51:40;;;;;;;1.13;1.00;;;;;;;;;;5070480;28;20039;-83
2023/06/27 14:54:05;;;;;;;0.60;0.55;;;;;;;;;;5071349;28;20546;-83
2023/06/27 14:56:31;;;;;;;2.60;1.48;;;;;;;;;;5070656;28;20115;-82
2023/06/27 14:58:56;;;;;;;1.55;1.10;;;;;;;;;;5053473;28;20075;-83
2023/06/27 15:01:24;;;;;;;1.42;1.00;;;;;;;;;;5070456;28;20085;-83
2023/06/27 15:03:50;;;;;;;1.40;1.00;;;;;;;;;;5072017;28;20509;-85
2023/06/27 15:06:16;;;;;;;1.75;1.00;;;;;;;;;;5071593;28;20103;-83
2023/06/27 15:08:43;;;;;;;0.50;0.50;;;;;;;;;;5071021;28;20944;-83
2023/06/27 15:11:09;;;;;;;2.10;1.70;;;;;;;;;;5053917;28;20432;-84
2023/06/27 15:13:34;;;;;;;1.75;1.00;;;;;;;;;;5052768;28;20078;-84
2023/06/27 15:16:00;;;;;;;0.95;0.80;;;;;;;;;;5053171;28;20036;-83
2023/06/27 15:18:25;;;;;;;2.42;1.27;;;;;;;;;;5053468;28;20035;-84
2023/06/27 15:20:51;;;;;;;1.38;0.90;;;;;;;;;;5053934;28;20480;-84
2023/06/27 15:23:16;;;;;;;1.58;0.80;;;;;;;;;;5070936;28;20434;-84
2023/06/27 15:25:42;;;;;;;0.90;0.88;;;;;;;;;;5052630;28;20107;-83
2023/06/27 15:28:08;;;;;;;1.23;0.77;;;;;;;;;;5053556;28;20081;-85
2023/06/27 15:30:35;;;;;;;1.50;1.10;;;;;;;;;;5052891;28;20472;-86
2023/06/27 15:33:00;;;;;;;1.10;1.00;;;;;;;;;;5070040;28;20031;-84
2023/06/27 15:35:26;;;;;;;1.45;0.68;;;;;;;;;;5070788;28;20036;-85
2023/06/27 15:37:51;;;;;;;1.80;1.23;;;;;;;;;;5069720;28;20024;-85
2023/06/27 15:40:17;;;;;;;1.42;0.85;;;;;;;;;;5071408;28;20488;-84
2023/06/27 15:42:42;;;;;;;0.85;0.50;;;;;;;;;;5067053;28;20032;-85
2023/06/27 15:45:08;;;;;;;1.38;0.73;;;;;;;;;;5072030;28;20024;-84
2023/06/27 15:47:34;;;;;;;0.90;0.80;;;;;;;;;;5068332;28;20028;-85
2023/06/27 15:50:04;;;;;;;0.95;0.80;;;;;;;;;;5070467;28;20078;-84
2023/06/27 15:52:30;;;;;;;1.05;0.88;;;;;;;;;;5070636;28;20036;-85
2023/06/27 15:55:00;;;;;;;0.82;0.70;;;;;;;;;;5070299;28;20034;-83
2023/06/27 15:57:31;;;;;;;0.68;0.52;;;;;;;;;;5070119;28;20032;-85
2023/06/27 15:59:56;;;;;;;1.85;1.00;;;;;;;;;;5068813;28;20560;-87
2023/06/27 16:02:23;;;;;;;0.68;0.68;;;;;;;;;;5051493;28;20124;-83
2023/06/27 16:04:49;;;;;;;1.58;0.63;;;;;;;;;;5070394;28;20436;-84
2023/06/27 16:07:16;;;;;;;1.17;0.90;;;;;;;;;;5052443;28;20035;-84
2023/06/27 16:09:41;;;;;;;1.35;0.85;;;;;;;;;;5052031;28;20179;-85
2023/06/27 16:12:07;;;;;;;1.80;0.95;;;;;;;;;;5051837;28;20119;-83
2023/06/27 16:14:34;;;;;;;1.10;0.70;;;;;;;;;;5069962;28;20089;-84
2023/06/27 16:17:00;;;;;;;2.30;1.08;;;;;;;;;;5066214;28;20036;-82
2023/06/27 16:19:25;;;;;;;2.25;1.20;;;;;;;;;;5069654;28;20082;-84
2023/06/27 16:21:51;;;;;;;1.25;0.90;;;;;;;;;;5067993;28;20099;-83
2023/06/27 16:24:17;;;;;;;1.55;0.95;;;;;;;;;;5070080;28;20024;-83
2023/06/27 16:26:43;;;;;;;1.65;1.05;;;;;;;;;;5064872;28;20082;-84
2023/06/27 16:29:08;;;;;;;1.13;0.95;;;;;;;;;;5040302;28;20131;-77
2023/06/27 16:31:34;;;;;;;1.35;1.17;;;;;;;;;;5064304;28;20024;-82
2023/06/27 16:33:59;;;;;;;1.25;1.00;;;;;;;;;;5060012;28;20062;-82
2023/06/27 16:36:25;;;;;;;1.27;0.98;;;;;;;;;;5050390;28;20031;-84
2023/06/27 16:38:50;;;;;;;0.60;0.60;;;;;;;;;;5060732;28;20053;-84
2023/06/27 16:41:16;;;;;;;1.33;0.90;;;;;;;;;;5059312;28;20070;-86
2023/06/27 16:43:41;;;;;;;2.20;1.02;;;;;;;;;;5055645;28;20020;-85
2023/06/27 16:46:07;;;;;;;1.98;1.23;;;;;;;;;;5054390;28;20032;-82
2023/06/27 16:48:32;;;;;;;1.48;1.02;;;;;;;;;;5065878;28;20036;-83
2023/06/27 16:50:58;;;;;;;1.50;0.98;;;;;;;;;;5053622;28;20028;-83
2023/06/27 16:53:23;;;;;;;1.27;0.75;;;;;;;;;;5058174;28;20419;-82
2023/06/27 16:55:48;;;;;;;0.70;0.70;;;;;;;;;;5063107;28;20029;-82
2023/06/27 16:58:14;;;;;;;1.83;1.25;;;;;;;;;;5057079;28;20116;-83
2023/06/27 17:00:40;;;;;;;0.90;0.80;;;;;;;;;;5061613;28;20059;-85
2023/06/27 17:03:07;;;;;;;1.20;1.10;;;;;;;;;;5065140;28;20102;-83
2023/06/27 17:05:33;;;;;;;0.88;0.85;;;;;;;;;;5059572;28;20389;-83
2023/06/27 17:07:59;;;;;;;1.52;0.88;;;;;;;;;;5045384;28;20511;-82
2023/06/27 17:10:25;;;;;;;1.23;1.02;;;;;;;;;;5042480;28;20477;-85
2023/06/27 17:12:51;;;;;;;1.05;0.95;;;;;;;;;;5065293;28;20123;-85
2023/06/27 17:15:17;;;;;;;0.60;0.60;;;;;;;;;;5045011;28;20058;-83
2023/06/27 17:17:42;;;;;;;1.27;0.95;;;;;;;;;;5062606;28;20059;-85
2023/06/27 17:20:11;;;;;;;0.77;0.77;;;;;;;;;;5038328;28;20040;-85
2023/06/27 17:22:37;;;;;;;1.08;0.98;;;;;;;;;;5044870;28;20066;-85
2023/06/27 17:25:03;;;;;;;2.08;1.20;;;;;;;;;;5058159;28;20022;-85
2023/06/27 17:27:28;;;;;;;1.88;1.30;;;;;;;;;;5065369;28;20043;-85
2023/06/27 17:29:54;;;;;;;1.48;1.15;;;;;;;;;;5040453;28;20432;-86
2023/06/27 17:32:20;;;;;;;2.10;1.23;;;;;;;;;;5061698;28;20080;-84
2023/06/27 17:34:45;;;;;;;1.50;1.05;;;;;;;;;;5039782;28;20020;-84
2023/06/27 17:37:11;;;;;;;2.15;1.42;;;;;;;;;;5040179;28;20056;-85
2023/06/27 17:39:36;;;;;;;1.65;1.20;;;;;;;;;;5065228;28;20103;-84
2023/06/27 17:42:02;;;;;;;2.72;1.70;;;;;;;;;;5040859;28;20504;-87
2023/06/27 17:44:28;;;;;;;2.95;1.25;;;;;;;;;;5055895;28;20025;-83
2023/06/27 17:46:53;;;;;;;1.33;1.13;;;;;;;;;;5060574;28;20044;-82
2023/06/27 17:49:19;;;;;;;1.88;1.00;;;;;;;;;;5054362;28;20072;-85
2023/06/27 17:51:45;;;;;;;2.78;1.30;;;;;;;;;;5056768;28;20119;-84